RYR5914 LIMC-LIRN
Flight info
| Callsign | RYR5914 |
|---|---|
| Flight time | 1h 1m |
| Altitude | 35000 |
| Route | ROBAS DCT LOGDI DCT EKDIR DCT LOMED DCT GENGI DCT EVULI DCT ERIKA |
| Aircraft | B738/M-SDE2E3FGHIRWXY/LB1 |
Departure
| Time | 2026-05-04 18:18 |
|---|---|
| Airport | Milan Malpensa International Airport (LIMC) |
Arrival
| Time | 2026-05-04 19:19 |
|---|---|
| Airport | Naples International Airport (LIRN) |
| Time | Latitude | Longitude | Altitude | Speed | Heading |
|---|---|---|---|---|---|
| 2026-05-04 17:57 | 45.62572 | 8.71950 | 715 ft | 0 kts | 79° |
| 2026-05-04 18:08 | 45.62573 | 8.71953 | 715 ft | 2 kts | 79° |
| 2026-05-04 18:09 | 45.62548 | 8.72045 | 717 ft | 8 kts | 142° |
| 2026-05-04 18:09 | 45.62405 | 8.72108 | 717 ft | 13 kts | 171° |
| 2026-05-04 18:10 | 45.62307 | 8.72135 | 718 ft | 16 kts | 170° |
| 2026-05-04 18:10 | 45.62193 | 8.72165 | 716 ft | 17 kts | 169° |
| 2026-05-04 18:10 | 45.62068 | 8.72201 | 716 ft | 19 kts | 168° |
| 2026-05-04 18:10 | 45.61933 | 8.72237 | 718 ft | 20 kts | 170° |
| 2026-05-04 18:11 | 45.61802 | 8.72271 | 717 ft | 19 kts | 168° |
| 2026-05-04 18:11 | 45.61676 | 8.72305 | 716 ft | 18 kts | 170° |
| 2026-05-04 18:11 | 45.61554 | 8.72338 | 717 ft | 18 kts | 169° |
| 2026-05-04 18:11 | 45.61435 | 8.72367 | 717 ft | 17 kts | 186° |
| 2026-05-04 18:12 | 45.61377 | 8.72234 | 717 ft | 16 kts | 240° |
| 2026-05-04 18:12 | 45.61270 | 8.72216 | 718 ft | 16 kts | 169° |
| 2026-05-04 18:12 | 45.61158 | 8.72248 | 716 ft | 17 kts | 169° |
| 2026-05-04 18:12 | 45.61012 | 8.72288 | 701 ft | 24 kts | 169° |
| 2026-05-04 18:13 | 45.60858 | 8.72331 | 698 ft | 23 kts | 169° |
| 2026-05-04 18:13 | 45.60692 | 8.72384 | 698 ft | 28 kts | 155° |
| 2026-05-04 18:13 | 45.60627 | 8.72727 | 694 ft | 24 kts | 95° |
| 2026-05-04 18:14 | 45.60610 | 8.72957 | 687 ft | 22 kts | 96° |
| 2026-05-04 18:14 | 45.60596 | 8.73174 | 691 ft | 23 kts | 83° |
| 2026-05-04 18:14 | 45.60701 | 8.73311 | 695 ft | 16 kts | 21° |
| 2026-05-04 18:15 | 45.60939 | 8.73395 | 705 ft | 18 kts | 348° |
| 2026-05-04 18:15 | 45.61157 | 8.73336 | 717 ft | 14 kts | 348° |
| 2026-05-04 18:15 | 45.61258 | 8.73308 | 717 ft | 16 kts | 348° |
| 2026-05-04 18:16 | 45.61377 | 8.73275 | 716 ft | 19 kts | 349° |
| 2026-05-04 18:16 | 45.61510 | 8.73239 | 716 ft | 19 kts | 349° |
| 2026-05-04 18:16 | 45.61623 | 8.73283 | 716 ft | 20 kts | 77° |
| 2026-05-04 18:17 | 45.61604 | 8.73695 | 718 ft | 23 kts | 55° |
| 2026-05-04 18:17 | 45.61826 | 8.73682 | 716 ft | 64 kts | 348° |
| 2026-05-04 18:17 | 45.63704 | 8.73184 | 822 ft | 195 kts | 349° |
| 2026-05-04 18:18 | 45.65084 | 8.72802 | 1605 ft | 205 kts | 348° |
| 2026-05-04 18:18 | 45.66499 | 8.72803 | 2427 ft | 212 kts | 16° |
| 2026-05-04 18:18 | 45.67671 | 8.74005 | 3223 ft | 208 kts | 49° |
| 2026-05-04 18:18 | 45.68371 | 8.75830 | 3847 ft | 213 kts | 74° |
| 2026-05-04 18:19 | 45.69442 | 8.79879 | 5004 ft | 230 kts | 38° |
| 2026-05-04 18:19 | 45.70720 | 8.81259 | 5854 ft | 230 kts | 39° |
| 2026-05-04 18:19 | 45.71961 | 8.82716 | 6637 ft | 232 kts | 49° |
| 2026-05-04 18:20 | 45.72615 | 8.84793 | 7266 ft | 235 kts | 89° |
| 2026-05-04 18:20 | 45.72221 | 8.87112 | 7563 ft | 255 kts | 125° |
| 2026-05-04 18:20 | 45.71052 | 8.89133 | 8059 ft | 269 kts | 133° |
| 2026-05-04 18:20 | 45.69779 | 8.91124 | 8872 ft | 273 kts | 134° |
| 2026-05-04 18:21 | 45.68497 | 8.93125 | 9810 ft | 273 kts | 135° |
| 2026-05-04 18:21 | 45.67214 | 8.95148 | 10522 ft | 281 kts | 135° |
| 2026-05-04 18:21 | 45.65846 | 8.97318 | 10718 ft | 306 kts | 135° |
| 2026-05-04 18:21 | 45.64369 | 8.99684 | 10909 ft | 331 kts | 134° |
| 2026-05-04 18:22 | 45.62806 | 9.02210 | 11279 ft | 346 kts | 134° |
| 2026-05-04 18:22 | 45.61203 | 9.04818 | 11883 ft | 353 kts | 134° |
| 2026-05-04 18:22 | 45.59573 | 9.07480 | 12572 ft | 358 kts | 134° |
| 2026-05-04 18:22 | 45.57920 | 9.10183 | 13220 ft | 365 kts | 134° |
| 2026-05-04 18:23 | 45.56238 | 9.12934 | 13871 ft | 371 kts | 134° |
| 2026-05-04 18:23 | 45.54525 | 9.15732 | 14469 ft | 376 kts | 134° |
| 2026-05-04 18:23 | 45.52799 | 9.18553 | 15139 ft | 379 kts | 134° |
| 2026-05-04 18:23 | 45.51057 | 9.21396 | 15800 ft | 382 kts | 134° |
| 2026-05-04 18:24 | 45.49302 | 9.24257 | 16431 ft | 386 kts | 134° |
| 2026-05-04 18:24 | 45.47520 | 9.27157 | 17051 ft | 390 kts | 134° |
| 2026-05-04 18:24 | 45.45744 | 9.30046 | 17655 ft | 395 kts | 134° |
| 2026-05-04 18:24 | 45.43903 | 9.33037 | 18271 ft | 399 kts | 134° |
| 2026-05-04 18:25 | 45.42061 | 9.36025 | 18771 ft | 404 kts | 134° |
| 2026-05-04 18:25 | 45.40223 | 9.39003 | 19341 ft | 408 kts | 134° |
| 2026-05-04 18:25 | 45.38343 | 9.42049 | 19926 ft | 409 kts | 134° |
| 2026-05-04 18:25 | 45.36459 | 9.45097 | 20520 ft | 411 kts | 134° |
| 2026-05-04 18:26 | 45.34565 | 9.48158 | 21058 ft | 413 kts | 134° |
| 2026-05-04 18:26 | 45.32653 | 9.51244 | 21569 ft | 416 kts | 134° |
| 2026-05-04 18:26 | 45.30734 | 9.54338 | 22070 ft | 419 kts | 134° |
| 2026-05-04 18:26 | 45.28798 | 9.57457 | 22569 ft | 422 kts | 134° |
| 2026-05-04 18:27 | 45.26853 | 9.60586 | 23067 ft | 425 kts | 134° |
| 2026-05-04 18:27 | 45.24889 | 9.63744 | 23544 ft | 427 kts | 134° |
| 2026-05-04 18:27 | 45.22917 | 9.66911 | 23947 ft | 430 kts | 134° |
| 2026-05-04 18:27 | 45.20926 | 9.70102 | 24314 ft | 433 kts | 134° |
| 2026-05-04 18:28 | 45.18827 | 9.73166 | 24694 ft | 433 kts | 141° |
| 2026-05-04 18:28 | 45.16419 | 9.75730 | 25078 ft | 434 kts | 148° |
| 2026-05-04 18:28 | 45.13919 | 9.78150 | 25399 ft | 437 kts | 149° |
| 2026-05-04 18:28 | 45.11385 | 9.80577 | 25723 ft | 441 kts | 149° |
| 2026-05-04 18:29 | 45.08870 | 9.82994 | 26100 ft | 443 kts | 148° |
| 2026-05-04 18:29 | 45.06321 | 9.85463 | 26488 ft | 445 kts | 148° |
| 2026-05-04 18:29 | 45.03764 | 9.87954 | 26846 ft | 447 kts | 148° |
| 2026-05-04 18:29 | 45.01163 | 9.90499 | 27180 ft | 450 kts | 148° |
| 2026-05-04 18:30 | 44.95988 | 9.95568 | 27841 ft | 455 kts | 148° |
| 2026-05-04 18:30 | 44.93373 | 9.98126 | 28104 ft | 459 kts | 149° |
| 2026-05-04 18:30 | 44.90831 | 10.00608 | 28300 ft | 464 kts | 149° |
| 2026-05-04 18:31 | 44.88174 | 10.03200 | 28616 ft | 465 kts | 149° |
| 2026-05-04 18:31 | 44.85507 | 10.05800 | 28964 ft | 467 kts | 149° |
| 2026-05-04 18:31 | 44.82828 | 10.08409 | 29271 ft | 469 kts | 149° |
| 2026-05-04 18:31 | 44.80140 | 10.11022 | 29545 ft | 471 kts | 149° |
| 2026-05-04 18:32 | 44.77432 | 10.13652 | 29853 ft | 473 kts | 149° |
| 2026-05-04 18:32 | 44.74725 | 10.16280 | 30235 ft | 472 kts | 149° |
| 2026-05-04 18:32 | 44.72022 | 10.18900 | 30554 ft | 472 kts | 150° |
| 2026-05-04 18:32 | 44.69313 | 10.21555 | 30715 ft | 477 kts | 149° |
| 2026-05-04 18:33 | 44.66609 | 10.24293 | 30985 ft | 479 kts | 149° |
| 2026-05-04 18:33 | 44.63924 | 10.27050 | 31311 ft | 478 kts | 148° |
| 2026-05-04 18:33 | 44.61240 | 10.29815 | 31625 ft | 478 kts | 148° |
| 2026-05-04 18:33 | 44.58559 | 10.32568 | 32020 ft | 478 kts | 148° |
| 2026-05-04 18:34 | 44.55871 | 10.35317 | 32340 ft | 477 kts | 148° |
| 2026-05-04 18:34 | 44.53188 | 10.38049 | 32643 ft | 477 kts | 149° |
| 2026-05-04 18:34 | 44.50495 | 10.40782 | 32912 ft | 478 kts | 149° |
| 2026-05-04 18:34 | 44.47795 | 10.43516 | 33126 ft | 480 kts | 149° |
| 2026-05-04 18:35 | 44.45087 | 10.46255 | 33450 ft | 480 kts | 149° |
| 2026-05-04 18:35 | 44.42387 | 10.48985 | 33833 ft | 478 kts | 149° |
| 2026-05-04 18:35 | 44.39697 | 10.51702 | 34171 ft | 477 kts | 149° |
| 2026-05-04 18:35 | 44.37005 | 10.54417 | 34395 ft | 477 kts | 149° |
| 2026-05-04 18:36 | 44.34311 | 10.57131 | 34662 ft | 477 kts | 149° |
| 2026-05-04 18:36 | 44.31617 | 10.59842 | 34899 ft | 477 kts | 149° |
| 2026-05-04 18:36 | 44.28927 | 10.62546 | 35124 ft | 477 kts | 149° |
| 2026-05-04 18:37 | 44.23500 | 10.67991 | 35226 ft | 483 kts | 149° |
| 2026-05-04 18:37 | 44.18413 | 10.74130 | 35198 ft | 487 kts | 135° |
| 2026-05-04 18:38 | 44.14145 | 10.81340 | 34844 ft | 476 kts | 134° |
| 2026-05-04 18:38 | 44.12041 | 10.84908 | 34246 ft | 477 kts | 134° |
| 2026-05-04 18:38 | 44.09920 | 10.88448 | 33688 ft | 475 kts | 134° |
| 2026-05-04 18:38 | 44.07833 | 10.91895 | 33652 ft | 457 kts | 135° |
| 2026-05-04 18:39 | 44.05810 | 10.95217 | 33654 ft | 446 kts | 135° |
| 2026-05-04 18:39 | 44.01777 | 11.01664 | 33721 ft | 451 kts | 140° |
| 2026-05-04 18:40 | 43.97195 | 11.07747 | 33852 ft | 462 kts | 143° |
| 2026-05-04 18:40 | 43.92385 | 11.13839 | 33973 ft | 474 kts | 143° |
| 2026-05-04 18:41 | 43.87470 | 11.20125 | 34157 ft | 484 kts | 142° |
| 2026-05-04 18:41 | 43.85002 | 11.23313 | 34342 ft | 485 kts | 142° |
| 2026-05-04 18:41 | 43.82540 | 11.26503 | 34656 ft | 484 kts | 142° |
| 2026-05-04 18:41 | 43.80088 | 11.29685 | 34986 ft | 482 kts | 142° |
| 2026-05-04 18:42 | 43.77668 | 11.32820 | 35115 ft | 484 kts | 142° |
| 2026-05-04 18:42 | 43.72702 | 11.39233 | 35112 ft | 489 kts | 142° |
| 2026-05-04 18:43 | 43.67754 | 11.45610 | 35104 ft | 483 kts | 142° |
| 2026-05-04 18:43 | 43.62832 | 11.51935 | 35112 ft | 482 kts | 142° |
| 2026-05-04 18:44 | 43.57918 | 11.58231 | 35123 ft | 481 kts | 142° |
| 2026-05-04 18:44 | 43.53004 | 11.64511 | 35125 ft | 482 kts | 142° |
| 2026-05-04 18:45 | 43.48082 | 11.70789 | 35114 ft | 483 kts | 142° |
| 2026-05-04 18:45 | 43.43171 | 11.77038 | 35126 ft | 485 kts | 142° |
| 2026-05-04 18:46 | 43.38204 | 11.83344 | 35124 ft | 487 kts | 142° |
| 2026-05-04 18:46 | 43.33182 | 11.89705 | 35127 ft | 489 kts | 142° |
| 2026-05-04 18:47 | 43.28188 | 11.96016 | 35139 ft | 492 kts | 142° |
| 2026-05-04 18:47 | 43.23201 | 12.02303 | 35129 ft | 494 kts | 142° |
| 2026-05-04 18:48 | 43.18134 | 12.08679 | 35109 ft | 494 kts | 142° |
| 2026-05-04 18:48 | 43.13059 | 12.15048 | 35129 ft | 495 kts | 142° |
| 2026-05-04 18:49 | 43.07960 | 12.21429 | 34837 ft | 498 kts | 142° |
| 2026-05-04 18:49 | 43.05408 | 12.24620 | 34598 ft | 495 kts | 142° |
| 2026-05-04 18:49 | 43.02868 | 12.27793 | 34357 ft | 494 kts | 142° |
| 2026-05-04 18:49 | 43.00324 | 12.30965 | 34124 ft | 496 kts | 143° |
| 2026-05-04 18:50 | 42.97776 | 12.34136 | 33864 ft | 497 kts | 142° |
| 2026-05-04 18:50 | 42.95216 | 12.37320 | 33583 ft | 498 kts | 142° |
| 2026-05-04 18:50 | 42.92648 | 12.40508 | 33323 ft | 499 kts | 142° |
| 2026-05-04 18:50 | 42.90074 | 12.43701 | 33059 ft | 501 kts | 142° |
| 2026-05-04 18:51 | 42.87494 | 12.46899 | 32800 ft | 502 kts | 142° |
| 2026-05-04 18:51 | 42.84911 | 12.50098 | 32544 ft | 503 kts | 142° |
| 2026-05-04 18:51 | 42.82317 | 12.53305 | 32290 ft | 504 kts | 142° |
| 2026-05-04 18:51 | 42.79719 | 12.56514 | 32046 ft | 505 kts | 142° |
| 2026-05-04 18:52 | 42.77116 | 12.59725 | 31787 ft | 505 kts | 142° |
| 2026-05-04 18:52 | 42.74515 | 12.62931 | 31544 ft | 505 kts | 142° |
| 2026-05-04 18:52 | 42.71902 | 12.66147 | 31279 ft | 505 kts | 142° |
| 2026-05-04 18:52 | 42.69333 | 12.69307 | 31030 ft | 505 kts | 142° |
| 2026-05-04 18:53 | 42.66729 | 12.72505 | 30771 ft | 504 kts | 142° |
| 2026-05-04 18:53 | 42.64130 | 12.75691 | 30541 ft | 502 kts | 142° |
| 2026-05-04 18:53 | 42.61535 | 12.78863 | 30286 ft | 500 kts | 142° |
| 2026-05-04 18:53 | 42.58956 | 12.82021 | 30057 ft | 500 kts | 142° |
| 2026-05-04 18:54 | 42.56364 | 12.85193 | 29790 ft | 501 kts | 142° |
| 2026-05-04 18:54 | 42.53778 | 12.88351 | 29492 ft | 499 kts | 142° |
| 2026-05-04 18:54 | 42.51207 | 12.91486 | 29228 ft | 496 kts | 142° |
| 2026-05-04 18:54 | 42.48645 | 12.94608 | 28948 ft | 492 kts | 141° |
| 2026-05-04 18:55 | 42.46127 | 12.97675 | 28660 ft | 482 kts | 141° |
| 2026-05-04 18:55 | 42.42093 | 13.02578 | 28225 ft | 472 kts | 141° |
| 2026-05-04 18:55 | 42.39647 | 13.05543 | 27966 ft | 471 kts | 141° |
| 2026-05-04 18:56 | 42.37236 | 13.08537 | 27699 ft | 470 kts | 140° |
| 2026-05-04 18:56 | 42.34868 | 13.11572 | 27440 ft | 468 kts | 139° |
| 2026-05-04 18:56 | 42.32521 | 13.14612 | 27175 ft | 467 kts | 139° |
| 2026-05-04 18:56 | 42.30180 | 13.17638 | 26922 ft | 465 kts | 139° |
| 2026-05-04 18:57 | 42.27839 | 13.20651 | 26675 ft | 463 kts | 139° |
| 2026-05-04 18:57 | 42.25505 | 13.23639 | 26426 ft | 462 kts | 139° |
| 2026-05-04 18:57 | 42.23171 | 13.26615 | 26181 ft | 459 kts | 139° |
| 2026-05-04 18:57 | 42.20854 | 13.29569 | 25926 ft | 456 kts | 139° |
| 2026-05-04 18:58 | 42.18583 | 13.32459 | 25695 ft | 453 kts | 139° |
| 2026-05-04 18:58 | 42.16298 | 13.35364 | 25444 ft | 450 kts | 139° |
| 2026-05-04 18:58 | 42.14028 | 13.38243 | 25212 ft | 446 kts | 139° |
| 2026-05-04 18:58 | 42.11776 | 13.41096 | 24964 ft | 443 kts | 139° |
| 2026-05-04 18:59 | 42.09536 | 13.43931 | 24725 ft | 439 kts | 139° |
| 2026-05-04 18:59 | 42.07320 | 13.46733 | 24496 ft | 436 kts | 139° |
| 2026-05-04 18:59 | 42.05116 | 13.49519 | 24263 ft | 433 kts | 139° |
| 2026-05-04 18:59 | 42.02925 | 13.52285 | 24032 ft | 430 kts | 139° |
| 2026-05-04 19:00 | 42.00750 | 13.55029 | 23806 ft | 428 kts | 139° |
| 2026-05-04 19:00 | 41.98587 | 13.57753 | 23542 ft | 426 kts | 139° |
| 2026-05-04 19:00 | 41.96433 | 13.60466 | 23274 ft | 424 kts | 139° |
| 2026-05-04 19:00 | 41.94284 | 13.63168 | 23025 ft | 422 kts | 139° |
| 2026-05-04 19:01 | 41.92142 | 13.65860 | 22749 ft | 421 kts | 139° |
| 2026-05-04 19:01 | 41.90008 | 13.68540 | 22482 ft | 420 kts | 139° |
| 2026-05-04 19:01 | 41.87877 | 13.71211 | 22230 ft | 419 kts | 139° |
| 2026-05-04 19:01 | 41.85751 | 13.73876 | 21973 ft | 418 kts | 139° |
| 2026-05-04 19:02 | 41.83630 | 13.76530 | 21719 ft | 417 kts | 139° |
| 2026-05-04 19:02 | 41.81511 | 13.79181 | 21459 ft | 416 kts | 139° |
| 2026-05-04 19:02 | 41.79396 | 13.81823 | 21214 ft | 415 kts | 139° |
| 2026-05-04 19:02 | 41.77288 | 13.84455 | 20945 ft | 413 kts | 139° |
| 2026-05-04 19:03 | 41.75187 | 13.87076 | 20693 ft | 412 kts | 139° |
| 2026-05-04 19:03 | 41.73087 | 13.89692 | 20458 ft | 411 kts | 139° |
| 2026-05-04 19:03 | 41.70996 | 13.92296 | 20222 ft | 410 kts | 139° |
| 2026-05-04 19:03 | 41.68910 | 13.94891 | 19970 ft | 409 kts | 139° |
| 2026-05-04 19:04 | 41.66828 | 13.97480 | 19723 ft | 408 kts | 139° |
| 2026-05-04 19:04 | 41.64768 | 14.00037 | 19481 ft | 406 kts | 139° |
| 2026-05-04 19:04 | 41.62752 | 14.02537 | 19250 ft | 404 kts | 139° |
| 2026-05-04 19:04 | 41.60750 | 14.05168 | 19024 ft | 403 kts | 135° |
| 2026-05-04 19:05 | 41.58848 | 14.07913 | 18795 ft | 402 kts | 133° |
| 2026-05-04 19:05 | 41.56979 | 14.10691 | 18564 ft | 401 kts | 133° |
| 2026-05-04 19:05 | 41.55127 | 14.13447 | 18160 ft | 398 kts | 133° |
| 2026-05-04 19:05 | 41.53277 | 14.16174 | 17710 ft | 394 kts | 133° |
| 2026-05-04 19:06 | 41.51436 | 14.18861 | 17245 ft | 391 kts | 133° |
| 2026-05-04 19:06 | 41.49605 | 14.21519 | 16838 ft | 387 kts | 133° |
| 2026-05-04 19:06 | 41.47759 | 14.24137 | 16291 ft | 387 kts | 137° |
| 2026-05-04 19:06 | 41.45732 | 14.26487 | 15780 ft | 385 kts | 141° |
| 2026-05-04 19:07 | 41.43644 | 14.28735 | 15261 ft | 384 kts | 142° |
| 2026-05-04 19:07 | 41.41552 | 14.30950 | 14761 ft | 383 kts | 142° |
| 2026-05-04 19:07 | 41.39493 | 14.33117 | 14271 ft | 382 kts | 143° |
| 2026-05-04 19:07 | 41.37385 | 14.35328 | 13746 ft | 380 kts | 143° |
| 2026-05-04 19:08 | 41.35315 | 14.37495 | 13286 ft | 376 kts | 143° |
| 2026-05-04 19:08 | 41.33268 | 14.39636 | 12850 ft | 372 kts | 143° |
| 2026-05-04 19:08 | 41.31272 | 14.41727 | 12414 ft | 366 kts | 143° |
| 2026-05-04 19:08 | 41.29285 | 14.43814 | 11965 ft | 353 kts | 143° |
| 2026-05-04 19:09 | 41.27416 | 14.45784 | 11539 ft | 342 kts | 142° |
| 2026-05-04 19:09 | 41.25578 | 14.47716 | 11114 ft | 332 kts | 143° |
| 2026-05-04 19:09 | 41.23789 | 14.49596 | 10700 ft | 323 kts | 143° |
| 2026-05-04 19:09 | 41.22047 | 14.51429 | 10287 ft | 315 kts | 143° |
| 2026-05-04 19:10 | 41.20352 | 14.53219 | 9867 ft | 308 kts | 143° |
| 2026-05-04 19:10 | 41.18695 | 14.54972 | 9422 ft | 301 kts | 143° |
| 2026-05-04 19:10 | 41.17072 | 14.56691 | 8986 ft | 296 kts | 143° |
| 2026-05-04 19:10 | 41.15478 | 14.58379 | 8552 ft | 291 kts | 143° |
| 2026-05-04 19:11 | 41.13903 | 14.60046 | 8133 ft | 287 kts | 143° |
| 2026-05-04 19:11 | 41.12372 | 14.61667 | 7745 ft | 275 kts | 143° |
| 2026-05-04 19:11 | 41.10914 | 14.63216 | 7428 ft | 260 kts | 143° |
| 2026-05-04 19:11 | 41.09551 | 14.64666 | 7152 ft | 251 kts | 143° |
| 2026-05-04 19:12 | 41.08066 | 14.65683 | 7001 ft | 234 kts | 174° |
| 2026-05-04 19:12 | 41.05512 | 14.63925 | 6731 ft | 216 kts | 230° |
| 2026-05-04 19:12 | 41.04534 | 14.62394 | 6418 ft | 218 kts | 230° |
| 2026-05-04 19:13 | 41.03625 | 14.60798 | 6093 ft | 216 kts | 234° |
| 2026-05-04 19:13 | 41.02798 | 14.59161 | 5783 ft | 212 kts | 236° |
| 2026-05-04 19:13 | 41.02013 | 14.57527 | 5481 ft | 207 kts | 236° |
| 2026-05-04 19:13 | 41.01260 | 14.55940 | 5188 ft | 201 kts | 237° |
| 2026-05-04 19:14 | 41.00521 | 14.54374 | 4889 ft | 199 kts | 237° |
| 2026-05-04 19:14 | 40.99795 | 14.52837 | 4583 ft | 196 kts | 237° |
| 2026-05-04 19:14 | 40.99078 | 14.51317 | 4309 ft | 192 kts | 237° |
| 2026-05-04 19:14 | 40.98385 | 14.49849 | 4006 ft | 184 kts | 237° |
| 2026-05-04 19:15 | 40.97724 | 14.48448 | 3778 ft | 172 kts | 237° |
| 2026-05-04 19:15 | 40.97105 | 14.47134 | 3527 ft | 164 kts | 237° |
| 2026-05-04 19:15 | 40.96537 | 14.45930 | 3314 ft | 148 kts | 237° |
| 2026-05-04 19:15 | 40.96008 | 14.44807 | 3079 ft | 141 kts | 237° |
| 2026-05-04 19:16 | 40.95491 | 14.43712 | 2867 ft | 140 kts | 237° |
| 2026-05-04 19:16 | 40.94973 | 14.42614 | 2669 ft | 141 kts | 237° |
| 2026-05-04 19:16 | 40.94453 | 14.41510 | 2450 ft | 141 kts | 238° |
| 2026-05-04 19:16 | 40.93934 | 14.40408 | 2240 ft | 141 kts | 238° |
| 2026-05-04 19:17 | 40.93413 | 14.39301 | 2037 ft | 141 kts | 238° |
| 2026-05-04 19:17 | 40.92894 | 14.38199 | 1819 ft | 142 kts | 239° |
| 2026-05-04 19:17 | 40.92374 | 14.37094 | 1609 ft | 141 kts | 239° |
| 2026-05-04 19:17 | 40.91858 | 14.35998 | 1397 ft | 139 kts | 240° |
| 2026-05-04 19:18 | 40.91337 | 14.34917 | 1107 ft | 141 kts | 239° |
| 2026-05-04 19:18 | 40.90821 | 14.33835 | 851 ft | 140 kts | 241° |
| 2026-05-04 19:18 | 40.90315 | 14.32713 | 632 ft | 144 kts | 239° |
| 2026-05-04 19:18 | 40.89777 | 14.31589 | 418 ft | 144 kts | 239° |
| 2026-05-04 19:19 | 40.89257 | 14.30480 | 277 ft | 139 kts | 239° |
| 2026-05-04 19:19 | 40.88780 | 14.29455 | 257 ft | 116 kts | 238° |
| 2026-05-04 19:19 | 40.88433 | 14.28716 | 275 ft | 79 kts | 238° |
| 2026-05-04 19:19 | 40.88249 | 14.28447 | 282 ft | 22 kts | 215° |
| 2026-05-04 19:20 | 40.88145 | 14.28368 | 285 ft | 17 kts | 208° |
| 2026-05-04 19:20 | 40.88061 | 14.28359 | 286 ft | 11 kts | 115° |
| 2026-05-04 19:20 | 40.88049 | 14.28481 | 284 ft | 14 kts | 96° |
| 2026-05-04 19:20 | 40.87995 | 14.28514 | 285 ft | 10 kts | 197° |
| 2026-05-04 19:21 | 40.87943 | 14.28453 | 286 ft | 11 kts | 248° |
| 2026-05-04 19:21 | 40.87929 | 14.28358 | 288 ft | 6 kts | 219° |
| 2026-05-04 19:21 | 40.87899 | 14.28347 | 294 ft | 3 kts | 188° |
| 2026-05-04 19:21 | 40.87882 | 14.28344 | 293 ft | 2 kts | 187° |
| 2026-05-04 19:22 | 40.87874 | 14.28342 | 291 ft | 0 kts | 187° |